createdAt,value
2023-04-02T00:00:35.813Z,68.43
2023-04-02T00:01:39.817Z,68.30
2023-04-02T00:03:04.148Z,68.20
2023-04-02T00:04:14.866Z,68.10
2023-04-02T00:05:18.493Z,68.26
2023-04-02T00:06:40.643Z,68.11
2023-04-02T00:07:45.578Z,68.32
2023-04-02T00:08:49.103Z,68.24
2023-04-02T00:09:51.875Z,68.49
2023-04-02T00:11:02.133Z,68.34
2023-04-02T00:12:19.349Z,68.26
2023-04-02T00:13:32.133Z,68.26
2023-04-02T00:14:36.019Z,68.24
2023-04-02T00:15:43.138Z,68.10
2023-04-02T00:16:48.548Z,68.47
2023-04-02T00:17:50.985Z,68.22
2023-04-02T00:18:59.110Z,68.36
2023-04-02T00:20:07.957Z,68.35
2023-04-02T00:21:13.371Z,68.31
2023-04-02T00:22:21.723Z,68.29
2023-04-02T00:23:24.486Z,68.04
2023-04-02T00:24:26.816Z,67.99
2023-04-02T00:25:43.221Z,68.01
2023-04-02T00:26:50.905Z,67.91
2023-04-02T00:27:53.244Z,67.92
2023-04-02T00:28:55.547Z,67.99
2023-04-02T00:29:59.404Z,67.91
2023-04-02T00:31:02.043Z,67.71
2023-04-02T00:32:04.830Z,67.87
2023-04-02T00:33:15.917Z,67.65
2023-04-02T00:34:34.019Z,67.61
2023-04-02T00:35:40.448Z,67.64
2023-04-02T00:36:44.273Z,67.46
2023-04-02T00:37:46.723Z,67.45
2023-04-02T00:38:49.365Z,67.53
2023-04-02T00:39:58.323Z,67.46
2023-04-02T00:41:04.125Z,67.43
2023-04-02T00:42:06.601Z,67.30
2023-04-02T00:43:08.942Z,67.21
2023-04-02T00:44:13.530Z,67.25
2023-04-02T00:45:29.023Z,67.17
2023-04-02T00:46:47.484Z,67.11
2023-04-02T00:47:50.583Z,67.19
2023-04-02T00:49:22.632Z,67.13
2023-04-02T00:50:33.148Z,67.16
2023-04-02T00:51:51.738Z,67.06
2023-04-02T00:52:58.595Z,67.14
2023-04-02T00:54:04.743Z,67.01
2023-04-02T00:55:12.255Z,67.01
2023-04-02T00:56:39.557Z,67.09
2023-04-02T00:57:43.247Z,67.12
2023-04-02T00:58:51.207Z,67.32
2023-04-02T01:00:12.469Z,67.39
2023-04-02T01:01:28.082Z,67.42
2023-04-02T01:02:33.072Z,67.53
2023-04-02T01:03:37.127Z,67.56
2023-04-02T01:04:40.127Z,67.64
2023-04-02T01:05:50.416Z,67.45
2023-04-02T01:06:53.663Z,67.41
2023-04-02T01:08:10.253Z,67.25
2023-04-02T01:09:43.182Z,67.31
2023-04-02T01:11:09.888Z,67.09
2023-04-02T01:12:39.615Z,67.04
2023-04-02T01:14:06.657Z,67.16
2023-04-02T01:15:20.867Z,67.06
2023-04-02T01:16:33.331Z,67.14
2023-04-02T01:17:50.393Z,67.02
2023-04-02T01:19:08.891Z,67.16
2023-04-02T01:20:15.189Z,67.00
2023-04-02T01:21:54.472Z,67.03
2023-04-02T01:23:18.354Z,67.02
2023-04-02T01:24:21.927Z,67.07
2023-04-02T01:25:31.927Z,67.01
2023-04-02T01:26:50.166Z,66.77
2023-04-02T01:28:10.287Z,66.74
2023-04-02T01:29:16.684Z,66.40
2023-04-02T01:30:20.289Z,66.37
2023-04-02T01:31:23.332Z,66.49
2023-04-02T01:32:29.862Z,66.47
2023-04-02T01:33:35.645Z,66.52
2023-04-02T01:34:39.261Z,66.45
2023-04-02T01:35:49.910Z,66.42
2023-04-02T01:37:14.196Z,66.63
2023-04-02T01:38:27.553Z,66.56
2023-04-02T01:39:50.670Z,66.56
2023-04-02T01:41:07.881Z,66.67
2023-04-02T01:42:18.947Z,66.64
2023-04-02T01:43:31.160Z,66.65
2023-04-02T01:44:44.532Z,66.64
2023-04-02T01:45:46.797Z,66.58
2023-04-02T01:46:49.972Z,66.52
2023-04-02T01:47:52.664Z,66.48
2023-04-02T01:48:56.906Z,66.41
2023-04-02T01:50:32.139Z,66.58
2023-04-02T01:51:36.311Z,66.50
2023-04-02T01:52:43.635Z,66.31
2023-04-02T01:53:47.374Z,66.24
2023-04-02T01:54:51.704Z,66.31
2023-04-02T01:55:57.401Z,66.24
2023-04-02T01:56:59.645Z,66.16
2023-04-02T01:58:04.042Z,65.96
2023-04-02T01:59:11.466Z,65.69
2023-04-02T02:00:17.454Z,65.46
2023-04-02T02:01:27.290Z,65.13
2023-04-02T02:02:29.891Z,64.86
2023-04-02T02:03:32.817Z,64.91
2023-04-02T02:04:37.276Z,64.88
2023-04-02T02:05:41.942Z,65.05
2023-04-02T02:06:44.957Z,65.13
2023-04-02T02:07:47.553Z,65.09
2023-04-02T02:09:21.631Z,65.07
2023-04-02T02:10:28.203Z,65.23
2023-04-02T02:11:32.708Z,65.21
2023-04-02T02:12:34.933Z,65.22
2023-04-02T02:13:37.221Z,65.45
2023-04-02T02:14:39.865Z,65.27
2023-04-02T02:15:42.688Z,65.32
2023-04-02T02:16:47.179Z,65.41
2023-04-02T02:17:49.973Z,65.46
2023-04-02T02:18:55.251Z,65.45
2023-04-02T02:20:00.714Z,65.33
2023-04-02T02:21:07.611Z,65.36
2023-04-02T02:22:30.036Z,65.14
2023-04-02T02:23:32.933Z,65.04
2023-04-02T02:24:37.280Z,65.14
2023-04-02T02:25:40.451Z,65.19
2023-04-02T02:26:44.814Z,65.27
2023-04-02T02:27:53.988Z,65.36
2023-04-02T02:28:59.170Z,65.40
2023-04-02T02:30:21.353Z,65.35
2023-04-02T02:31:30.030Z,65.17
2023-04-02T02:32:38.329Z,65.10
2023-04-02T02:33:49.805Z,65.03
2023-04-02T02:35:07.462Z,65.16
2023-04-02T02:36:33.793Z,65.23
2023-04-02T02:37:43.459Z,65.26
2023-04-02T02:39:07.259Z,65.37
2023-04-02T02:40:24.014Z,65.56
2023-04-02T02:41:52.046Z,65.50
2023-04-02T02:43:02.801Z,65.66
2023-04-02T02:44:08.331Z,65.81
2023-04-02T02:45:18.442Z,65.89
2023-04-02T02:46:24.080Z,65.86
2023-04-02T02:47:33.400Z,65.82
2023-04-02T02:48:41.008Z,65.78
2023-04-02T02:49:47.753Z,65.72
2023-04-02T02:50:51.702Z,65.72
2023-04-02T02:52:04.058Z,65.80
2023-04-02T02:53:23.185Z,65.78
2023-04-02T02:54:29.226Z,65.73
2023-04-02T02:55:38.047Z,65.79
2023-04-02T02:57:02.940Z,65.75
2023-04-02T02:58:09.920Z,65.74
2023-04-02T02:59:22.734Z,65.68
2023-04-02T03:00:26.477Z,65.70
2023-04-02T03:01:31.316Z,65.78
2023-04-02T03:02:40.272Z,65.56
2023-04-02T03:03:47.727Z,65.42
2023-04-02T03:04:53.745Z,65.44
2023-04-02T03:06:02.379Z,65.53
2023-04-02T03:07:09.207Z,65.48
2023-04-02T03:08:29.808Z,65.42
2023-04-02T03:09:39.638Z,65.37
2023-04-02T03:11:06.530Z,65.36
2023-04-02T03:12:39.923Z,65.28
2023-04-02T03:13:47.516Z,65.04
2023-04-02T03:15:12.660Z,65.14
2023-04-02T03:16:21.579Z,64.95
2023-04-02T03:17:38.740Z,64.94
2023-04-02T03:18:52.945Z,65.04
2023-04-02T03:20:01.934Z,64.89
2023-04-02T03:21:14.790Z,64.79
2023-04-02T03:22:30.058Z,64.89
2023-04-02T03:23:40.823Z,64.77
2023-04-02T03:25:12.053Z,64.77
2023-04-02T03:26:20.264Z,64.86
2023-04-02T03:27:29.424Z,64.81
2023-04-02T03:28:38.754Z,64.80
2023-04-02T03:29:52.148Z,64.84
2023-04-02T03:31:06.129Z,64.91
2023-04-02T03:32:23.533Z,64.83
2023-04-02T03:33:36.141Z,64.77
2023-04-02T03:34:46.899Z,65.05
2023-04-02T03:36:16.366Z,64.93
2023-04-02T03:37:27.234Z,64.86
2023-04-02T03:38:41.330Z,64.61
2023-04-02T03:40:09.086Z,64.67
2023-04-02T03:41:18.640Z,64.70
2023-04-02T03:42:26.317Z,64.85
2023-04-02T03:43:40.229Z,64.91
2023-04-02T03:44:55.528Z,64.92
2023-04-02T03:46:09.538Z,65.09
2023-04-02T03:47:18.890Z,65.10
2023-04-02T03:48:31.577Z,65.25
2023-04-02T03:49:39.628Z,65.33
2023-04-02T03:50:51.456Z,65.33
2023-04-02T03:52:00.292Z,65.34
2023-04-02T03:53:04.701Z,65.29
2023-04-02T03:54:15.372Z,65.31
2023-04-02T03:55:19.604Z,65.27
2023-04-02T03:56:43.987Z,65.37
2023-04-02T03:58:05.256Z,65.53
2023-04-02T03:59:32.197Z,65.47
2023-04-02T04:00:41.590Z,65.42
2023-04-02T04:02:07.137Z,65.45
2023-04-02T04:03:17.064Z,65.47
2023-04-02T04:04:20.901Z,65.32
2023-04-02T04:05:34.960Z,65.39
2023-04-02T04:06:43.614Z,65.39
2023-04-02T04:07:46.340Z,65.30
2023-04-02T04:08:54.894Z,65.49
2023-04-02T04:09:59.753Z,65.41
2023-04-02T04:11:07.534Z,65.25
2023-04-02T04:12:18.520Z,65.19
2023-04-02T04:13:30.160Z,65.24
2023-04-02T04:14:35.047Z,65.30
2023-04-02T04:15:49.504Z,65.11
2023-04-02T04:17:04.922Z,65.22
2023-04-02T04:18:21.717Z,65.17
2023-04-02T04:19:32.811Z,65.00
2023-04-02T04:20:46.172Z,65.00
2023-04-02T04:21:58.154Z,65.30
2023-04-02T04:23:26.026Z,65.23
2023-04-02T04:24:29.093Z,65.24
2023-04-02T04:25:37.368Z,65.27
2023-04-02T04:26:53.664Z,65.31
2023-04-02T04:28:22.338Z,65.56
2023-04-02T04:29:40.883Z,65.51
2023-04-02T04:30:51.419Z,65.64
2023-04-02T04:31:56.578Z,65.49
2023-04-02T04:33:12.748Z,65.57
2023-04-02T04:34:42.603Z,65.30
2023-04-02T04:35:51.714Z,65.27
2023-04-02T04:37:01.852Z,65.52
2023-04-02T04:38:12.306Z,65.27
2023-04-02T04:39:24.143Z,65.47
2023-04-02T04:40:30.505Z,65.47
2023-04-02T04:41:38.369Z,65.52
2023-04-02T04:42:44.150Z,65.56
2023-04-02T04:44:07.034Z,65.50
2023-04-02T04:45:21.929Z,65.53
2023-04-02T04:46:38.920Z,65.48
2023-04-02T04:47:50.060Z,65.31
2023-04-02T04:49:14.382Z,65.41
2023-04-02T04:50:35.430Z,65.31
2023-04-02T04:51:45.706Z,65.24
2023-04-02T04:52:49.018Z,65.22
2023-04-02T04:53:55.256Z,65.12
2023-04-02T04:55:01.532Z,65.17
2023-04-02T04:56:16.481Z,65.32
2023-04-02T04:57:38.155Z,65.20
2023-04-02T04:59:02.717Z,65.39
2023-04-02T05:00:22.270Z,65.50
2023-04-02T05:01:34.280Z,65.59
2023-04-02T05:02:45.595Z,65.59
2023-04-02T05:04:14.840Z,65.69
2023-04-02T05:05:23.863Z,65.66
2023-04-02T05:06:34.636Z,65.58
2023-04-02T05:07:50.001Z,65.64
2023-04-02T05:09:01.690Z,65.83
2023-04-02T05:10:13.342Z,65.72
2023-04-02T05:11:28.536Z,65.65
2023-04-02T05:12:56.613Z,65.61
2023-04-02T05:14:04.741Z,65.54
2023-04-02T05:15:12.997Z,65.65
2023-04-02T05:16:28.833Z,65.70
2023-04-02T05:17:42.822Z,65.60
2023-04-02T05:18:54.051Z,65.57
2023-04-02T05:20:09.934Z,65.66
2023-04-02T05:21:26.578Z,65.68
2023-04-02T05:22:50.694Z,65.65
2023-04-02T05:24:05.144Z,65.89
2023-04-02T05:25:19.091Z,65.92
2023-04-02T05:26:32.353Z,65.74
2023-04-02T05:27:53.048Z,65.85
2023-04-02T05:29:12.014Z,65.97
2023-04-02T05:30:23.224Z,66.00
2023-04-02T05:31:40.580Z,65.90
2023-04-02T05:33:08.087Z,66.07
2023-04-02T05:34:12.639Z,66.26
2023-04-02T05:35:21.051Z,66.15
2023-04-02T05:36:26.633Z,66.37
2023-04-02T05:37:32.154Z,66.19
2023-04-02T05:38:38.956Z,66.20
2023-04-02T05:39:44.771Z,66.42
2023-04-02T05:40:51.118Z,66.19
2023-04-02T05:42:08.530Z,66.27
2023-04-02T05:43:28.186Z,66.09
2023-04-02T05:44:34.153Z,66.13
2023-04-02T05:45:39.941Z,66.19
2023-04-02T05:46:49.935Z,66.18
2023-04-02T05:48:03.234Z,66.21
2023-04-02T05:49:20.746Z,66.10
2023-04-02T05:50:37.523Z,66.09
2023-04-02T05:51:46.212Z,66.15
2023-04-02T05:52:57.084Z,66.26
2023-04-02T05:54:03.332Z,66.16
2023-04-02T05:55:29.493Z,66.12
2023-04-02T05:56:41.445Z,66.16
2023-04-02T05:57:58.987Z,66.17
2023-04-02T05:59:31.199Z,66.02
2023-04-02T06:00:36.697Z,66.06
2023-04-02T06:02:31.774Z,65.99
2023-04-02T06:03:53.635Z,65.79
2023-04-02T06:05:12.825Z,65.77
2023-04-02T06:06:42.816Z,65.90
2023-04-02T06:07:47.110Z,65.86
2023-04-02T06:08:58.080Z,65.82
2023-04-02T06:10:01.597Z,65.61
2023-04-02T06:11:17.624Z,65.56
2023-04-02T06:12:43.362Z,65.76
2023-04-02T06:13:46.835Z,65.73
2023-04-02T06:14:49.629Z,65.61
2023-04-02T06:15:52.270Z,65.55
2023-04-02T06:17:00.025Z,65.42
2023-04-02T06:18:05.122Z,65.53
2023-04-02T06:19:17.315Z,65.53
2023-04-02T06:20:21.423Z,65.76
2023-04-02T06:21:23.730Z,65.68
2023-04-02T06:22:35.833Z,65.87
2023-04-02T06:23:44.210Z,65.78
2023-04-02T06:24:49.484Z,65.75
2023-04-02T06:26:04.267Z,65.84
2023-04-02T06:27:10.559Z,65.93
2023-04-02T06:28:18.093Z,65.65
2023-04-02T06:29:42.456Z,65.80
2023-04-02T06:30:53.495Z,65.71
2023-04-02T06:32:00.521Z,65.77
2023-04-02T06:33:04.284Z,65.76
2023-04-02T06:34:15.441Z,65.77
2023-04-02T06:35:23.662Z,65.65
2023-04-02T06:36:40.987Z,65.79
2023-04-02T06:37:48.533Z,65.70
2023-04-02T06:39:08.341Z,65.73
2023-04-02T06:40:38.856Z,65.80
2023-04-02T06:41:45.972Z,65.71
2023-04-02T06:43:11.409Z,65.66
2023-04-02T06:44:38.730Z,65.43
2023-04-02T06:46:19.062Z,65.58
2023-04-02T06:47:47.332Z,65.60
2023-04-02T06:49:03.707Z,65.78
2023-04-02T06:50:17.072Z,65.56
2023-04-02T06:51:22.915Z,65.56
2023-04-02T06:52:29.573Z,65.61
2023-04-02T06:53:38.103Z,65.50
2023-04-02T06:54:41.357Z,65.33
2023-04-02T06:55:54.523Z,65.40
2023-04-02T06:57:01.523Z,65.24
2023-04-02T06:58:10.859Z,65.24
2023-04-02T06:59:15.962Z,65.26
2023-04-02T07:00:41.587Z,65.30
2023-04-02T07:01:52.380Z,65.12
2023-04-02T07:02:56.642Z,65.29
2023-04-02T07:03:59.831Z,65.16
2023-04-02T07:05:13.526Z,64.79
2023-04-02T07:06:22.328Z,64.68
2023-04-02T07:07:27.444Z,64.74
2023-04-02T07:08:30.002Z,64.86
2023-04-02T07:09:33.086Z,64.76
2023-04-02T07:10:37.837Z,64.78
2023-04-02T07:11:40.353Z,64.86
2023-04-02T07:12:43.639Z,64.94
2023-04-02T07:13:46.510Z,64.99
2023-04-02T07:14:48.842Z,64.98
2023-04-02T07:15:54.328Z,64.90
2023-04-02T07:16:57.333Z,64.98
2023-04-02T07:18:00.117Z,65.14
2023-04-02T07:19:04.390Z,65.09
2023-04-02T07:20:26.833Z,65.02
2023-04-02T07:21:30.189Z,64.90
2023-04-02T07:22:34.013Z,64.91
2023-04-02T07:23:38.082Z,64.90
2023-04-02T07:24:40.406Z,64.83
2023-04-02T07:25:42.709Z,64.76
2023-04-02T07:26:45.728Z,64.93
2023-04-02T07:27:48.231Z,64.87
2023-04-02T07:28:50.637Z,64.62
2023-04-02T07:29:52.873Z,64.74
2023-04-02T07:30:56.598Z,64.76
2023-04-02T07:31:58.831Z,64.77
2023-04-02T07:33:02.040Z,64.83
2023-04-02T07:34:05.705Z,64.79
2023-04-02T07:35:08.955Z,64.93
2023-04-02T07:36:20.598Z,64.74
2023-04-02T07:37:22.850Z,64.73
2023-04-02T07:38:25.989Z,64.73
2023-04-02T07:39:28.603Z,64.82
2023-04-02T07:40:32.321Z,64.76
2023-04-02T07:41:34.596Z,64.92
2023-04-02T07:42:37.058Z,64.85
2023-04-02T07:43:40.103Z,64.82
2023-04-02T07:44:42.371Z,64.93
2023-04-02T07:45:44.908Z,64.94
2023-04-02T07:46:47.193Z,64.92
2023-04-02T07:47:49.515Z,64.88
2023-04-02T07:48:51.753Z,64.70
2023-04-02T07:49:54.799Z,64.71
2023-04-02T07:50:57.102Z,64.61
2023-04-02T07:51:59.331Z,64.74
2023-04-02T07:53:04.231Z,64.56
2023-04-02T07:54:10.305Z,64.70
2023-04-02T07:55:14.871Z,64.73
2023-04-02T07:56:19.757Z,64.51
2023-04-02T07:57:22.147Z,64.61
2023-04-02T07:58:24.471Z,64.57
2023-04-02T07:59:26.694Z,64.38
2023-04-02T08:00:29.198Z,64.50
2023-04-02T08:01:35.701Z,64.49
2023-04-02T08:02:38.141Z,64.65
2023-04-02T08:03:40.485Z,64.52
2023-04-02T08:04:42.752Z,64.58
2023-04-02T08:05:53.998Z,64.73
2023-04-02T08:06:56.311Z,64.50
2023-04-02T08:07:58.568Z,64.59
2023-04-02T08:09:01.206Z,64.47
2023-04-02T08:10:04.649Z,64.61
2023-04-02T08:11:07.296Z,64.62
2023-04-02T08:12:13.576Z,64.49
2023-04-02T08:13:17.578Z,64.43
2023-04-02T08:14:19.981Z,64.51
2023-04-02T08:15:22.303Z,64.43
2023-04-02T08:16:25.549Z,64.36
2023-04-02T08:17:31.612Z,64.25
2023-04-02T08:18:34.611Z,64.15
2023-04-02T08:19:51.740Z,64.26
2023-04-02T08:20:57.585Z,64.15
2023-04-02T08:21:59.834Z,63.89
2023-04-02T08:23:02.098Z,64.11
2023-04-02T08:24:04.505Z,63.93
2023-04-02T08:25:07.339Z,63.89
2023-04-02T08:26:09.677Z,63.90
2023-04-02T08:27:15.005Z,63.66
2023-04-02T08:28:17.750Z,63.49
2023-04-02T08:29:20.772Z,63.36
2023-04-02T08:30:26.018Z,63.32
2023-04-02T08:31:28.388Z,63.35
2023-04-02T08:32:30.714Z,63.30
2023-04-02T08:33:33.035Z,63.45
2023-04-02T08:34:35.283Z,63.27
2023-04-02T08:35:37.819Z,63.20
2023-04-02T08:36:43.905Z,63.01
2023-04-02T08:37:46.319Z,62.95
2023-04-02T08:38:51.394Z,62.53
2023-04-02T08:39:54.110Z,62.09
2023-04-02T08:41:01.549Z,61.71
2023-04-02T08:42:15.019Z,61.64
2023-04-02T08:43:52.730Z,61.38
2023-04-02T08:45:24.246Z,61.41
2023-04-02T08:46:37.979Z,61.55
2023-04-02T08:47:44.474Z,61.52
2023-04-02T08:48:53.117Z,61.36
2023-04-02T08:50:02.474Z,60.89
2023-04-02T08:51:10.998Z,60.93
2023-04-02T08:52:23.548Z,60.55
2023-04-02T08:53:31.430Z,60.41
2023-04-02T08:54:43.850Z,60.21
2023-04-02T08:56:00.152Z,60.01
2023-04-02T08:57:12.835Z,60.08
2023-04-02T08:58:30.884Z,60.05
2023-04-02T08:59:36.130Z,59.91
2023-04-02T09:00:42.045Z,59.94
2023-04-02T09:01:54.756Z,59.93
2023-04-02T09:03:11.287Z,59.47
2023-04-02T09:04:16.481Z,59.67
2023-04-02T09:05:28.436Z,59.80
2023-04-02T09:06:30.767Z,59.77
2023-04-02T09:07:33.814Z,59.72
2023-04-02T09:08:36.644Z,59.88
2023-04-02T09:09:39.103Z,59.78
2023-04-02T09:11:05.485Z,59.85
2023-04-02T09:12:17.941Z,60.00
2023-04-02T09:13:25.179Z,59.78
2023-04-02T09:14:56.732Z,59.79
2023-04-02T09:16:08.500Z,59.88
2023-04-02T09:17:19.376Z,59.88
2023-04-02T09:18:21.790Z,59.82
2023-04-02T09:19:37.113Z,60.10
2023-04-02T09:20:40.123Z,59.92
2023-04-02T09:21:48.828Z,59.75
2023-04-02T09:22:53.365Z,59.89
2023-04-02T09:23:56.135Z,59.73
2023-04-02T09:25:01.155Z,59.81
2023-04-02T09:26:22.319Z,59.96
2023-04-02T09:27:28.081Z,59.86
2023-04-02T09:28:30.308Z,59.94
2023-04-02T09:30:21.559Z,59.77
2023-04-02T09:31:31.941Z,59.29
2023-04-02T09:32:49.151Z,59.36
2023-04-02T09:33:53.391Z,59.27
2023-04-02T09:35:24.514Z,59.18
2023-04-02T09:36:40.668Z,59.27
2023-04-02T09:37:44.004Z,58.99
2023-04-02T09:39:01.788Z,58.84
2023-04-02T09:40:33.863Z,59.21
2023-04-02T09:41:37.283Z,59.08
2023-04-02T09:42:39.650Z,59.40
2023-04-02T09:43:41.974Z,59.27
2023-04-02T09:44:44.219Z,59.31
2023-04-02T09:45:57.524Z,59.34
2023-04-02T09:47:06.548Z,59.37
2023-04-02T09:48:26.225Z,59.18
2023-04-02T09:49:34.498Z,59.23
2023-04-02T09:50:37.016Z,59.43
2023-04-02T09:51:39.236Z,59.39
2023-04-02T09:52:43.709Z,59.35
2023-04-02T09:54:07.671Z,59.38
2023-04-02T09:55:15.742Z,59.60
2023-04-02T09:56:23.745Z,59.70
2023-04-02T09:57:28.234Z,59.73
2023-04-02T09:58:30.570Z,59.73
2023-04-02T09:59:32.822Z,59.73
2023-04-02T10:00:35.721Z,59.69
2023-04-02T10:01:56.091Z,59.54
2023-04-02T10:03:19.624Z,59.57
2023-04-02T10:04:39.453Z,59.46
2023-04-02T10:05:43.811Z,59.33
2023-04-02T10:06:50.481Z,59.23
2023-04-02T10:07:54.877Z,59.17
2023-04-02T10:08:57.238Z,58.90
2023-04-02T10:10:01.943Z,58.95
2023-04-02T10:11:36.627Z,58.67
2023-04-02T10:12:59.228Z,58.49
2023-04-02T10:14:11.152Z,58.47
2023-04-02T10:15:21.680Z,58.50
2023-04-02T10:16:46.857Z,58.49
2023-04-02T10:18:03.778Z,58.37
2023-04-02T10:19:28.481Z,58.38
2023-04-02T10:20:48.601Z,58.43
2023-04-02T10:21:55.830Z,58.20
2023-04-02T10:22:58.079Z,58.08
2023-04-02T10:24:00.458Z,57.89
2023-04-02T10:25:02.832Z,57.89
2023-04-02T10:26:17.431Z,57.84
2023-04-02T10:27:34.036Z,57.93
2023-04-02T10:28:55.813Z,57.73
2023-04-02T10:30:16.281Z,57.54
2023-04-02T10:31:26.660Z,57.34
2023-04-02T10:32:34.539Z,57.34
2023-04-02T10:33:38.640Z,57.32
2023-04-02T10:34:46.796Z,57.45
2023-04-02T10:36:05.879Z,57.52
2023-04-02T10:37:32.356Z,57.67
2023-04-02T10:38:45.131Z,57.75
2023-04-02T10:40:00.178Z,57.71
2023-04-02T10:41:16.752Z,57.81
2023-04-02T10:42:45.099Z,57.95
2023-04-02T10:44:12.659Z,57.97
2023-04-02T10:45:52.946Z,58.17
2023-04-02T10:47:12.468Z,58.21
2023-04-02T10:48:34.827Z,58.12
2023-04-02T10:49:51.613Z,58.17
2023-04-02T10:51:07.630Z,58.19
2023-04-02T10:52:13.863Z,58.06
2023-04-02T10:53:21.701Z,57.94
2023-04-02T10:54:34.011Z,57.83
2023-04-02T10:55:43.474Z,57.84
2023-04-02T10:56:50.958Z,57.86
2023-04-02T10:57:57.232Z,57.71
2023-04-02T10:59:06.404Z,57.82
2023-04-02T11:00:11.731Z,57.86
2023-04-02T11:01:25.775Z,57.89
2023-04-02T11:02:35.087Z,57.93
2023-04-02T11:03:44.873Z,57.94
2023-04-02T11:04:47.860Z,57.94
2023-04-02T11:05:52.212Z,57.86
2023-04-02T11:07:13.135Z,57.69
2023-04-02T11:08:28.392Z,57.62
2023-04-02T11:09:36.684Z,57.59
2023-04-02T11:10:44.782Z,57.51
2023-04-02T11:11:52.666Z,57.69
2023-04-02T11:13:05.971Z,57.45
2023-04-02T11:14:17.471Z,57.49
2023-04-02T11:15:20.998Z,57.44
2023-04-02T11:16:24.233Z,57.39
2023-04-02T11:17:29.058Z,57.30
2023-04-02T11:18:37.768Z,57.38
2023-04-02T11:19:39.992Z,57.42
2023-04-02T11:20:51.145Z,57.19
2023-04-02T11:22:14.070Z,57.09
2023-04-02T11:23:20.585Z,57.09
2023-04-02T11:24:46.030Z,57.07
2023-04-02T11:25:48.864Z,57.15
2023-04-02T11:26:53.883Z,57.27
2023-04-02T11:28:27.507Z,57.40
2023-04-02T11:29:31.389Z,57.52
2023-04-02T11:30:34.785Z,57.80
2023-04-02T11:31:37.727Z,57.96
2023-04-02T11:32:43.180Z,58.22
2023-04-02T11:33:47.295Z,58.23
2023-04-02T11:35:03.413Z,58.37
2023-04-02T11:36:47.014Z,58.48
2023-04-02T11:37:49.318Z,58.60
2023-04-02T11:39:04.502Z,58.62
2023-04-02T11:40:14.199Z,58.73
2023-04-02T11:42:09.135Z,58.83
2023-04-02T11:43:33.436Z,58.97
2023-04-02T11:44:36.631Z,58.51
2023-04-02T11:45:52.949Z,58.11
2023-04-02T11:47:14.941Z,57.93
2023-04-02T11:48:17.100Z,57.96
2023-04-02T11:49:40.370Z,57.73
2023-04-02T11:50:46.511Z,57.53
2023-04-02T11:51:54.392Z,57.49
2023-04-02T11:53:10.729Z,57.60
2023-04-02T11:54:26.539Z,57.32
2023-04-02T11:55:37.282Z,57.16
2023-04-02T11:57:01.107Z,56.79
2023-04-02T11:58:25.550Z,56.45
2023-04-02T11:59:54.026Z,56.44
2023-04-02T12:01:33.220Z,56.22
2023-04-02T12:02:56.398Z,55.99
2023-04-02T12:04:36.337Z,55.98
2023-04-02T12:06:09.321Z,55.71
2023-04-02T12:07:36.586Z,55.56
2023-04-02T12:09:05.725Z,55.65
2023-04-02T12:10:27.906Z,55.04
2023-04-02T12:11:33.693Z,54.91
2023-04-02T12:12:39.044Z,54.68
2023-04-02T12:13:41.388Z,54.79
2023-04-02T12:14:52.845Z,54.75
2023-04-02T12:15:58.271Z,54.61
2023-04-02T12:17:01.059Z,54.56
2023-04-02T12:18:23.230Z,54.59
2023-04-02T12:19:26.735Z,54.55
2023-04-02T12:20:30.821Z,54.56
2023-04-02T12:21:33.081Z,54.76
2023-04-02T12:22:39.726Z,54.63
2023-04-02T12:23:47.880Z,54.67
2023-04-02T12:24:52.726Z,54.53
2023-04-02T12:26:08.668Z,54.25
2023-04-02T12:27:18.559Z,54.44
2023-04-02T12:28:22.570Z,54.69
2023-04-02T12:29:29.173Z,54.65
2023-04-02T12:30:31.782Z,54.78
2023-04-02T12:31:34.174Z,54.58
2023-04-02T12:32:36.665Z,54.58
2023-04-02T12:33:42.862Z,54.34
2023-04-02T12:34:46.715Z,54.48
2023-04-02T12:35:57.736Z,54.31
2023-04-02T12:37:05.596Z,54.03
2023-04-02T12:38:24.460Z,54.09
2023-04-02T12:39:28.452Z,54.16
2023-04-02T12:40:31.091Z,54.05
2023-04-02T12:41:36.913Z,53.81
2023-04-02T12:42:39.166Z,53.70
2023-04-02T12:43:42.652Z,53.72
2023-04-02T12:44:49.614Z,53.44
2023-04-02T12:45:54.633Z,53.50
2023-04-02T12:46:58.446Z,53.54
2023-04-02T12:48:06.719Z,53.26
2023-04-02T12:49:36.687Z,52.91
2023-04-02T12:50:41.960Z,52.93
2023-04-02T12:51:48.274Z,52.64
2023-04-02T12:52:53.506Z,52.60
2023-04-02T12:53:59.170Z,52.67
2023-04-02T12:55:06.351Z,52.45
2023-04-02T12:56:19.472Z,52.33
2023-04-02T12:57:27.729Z,52.49
2023-04-02T12:58:37.465Z,52.36
2023-04-02T12:59:40.930Z,52.23
2023-04-02T13:00:43.253Z,52.29
2023-04-02T13:01:58.374Z,52.10
2023-04-02T13:03:09.440Z,52.05
2023-04-02T13:04:15.248Z,52.19
2023-04-02T13:05:37.893Z,52.18
2023-04-02T13:06:47.362Z,52.11
2023-04-02T13:07:49.723Z,52.13
2023-04-02T13:08:58.254Z,51.96
2023-04-02T13:10:25.336Z,52.44
2023-04-02T13:11:39.478Z,52.53
2023-04-02T13:12:42.042Z,52.65
2023-04-02T13:13:46.495Z,52.70
2023-04-02T13:14:55.065Z,52.76
2023-04-02T13:16:15.536Z,52.92
2023-04-02T13:17:54.322Z,53.15
2023-04-02T13:19:23.449Z,53.35
2023-04-02T13:20:37.896Z,53.14
2023-04-02T13:21:40.562Z,52.66
2023-04-02T13:22:42.907Z,52.36
2023-04-02T13:23:46.224Z,52.20
2023-04-02T13:24:48.516Z,52.59
2023-04-02T13:25:51.540Z,52.69
2023-04-02T13:26:56.572Z,52.82
2023-04-02T13:28:02.101Z,52.40
2023-04-02T13:29:17.183Z,52.14
2023-04-02T13:30:23.257Z,51.87
2023-04-02T13:31:26.115Z,51.49
2023-04-02T13:32:28.578Z,51.53
2023-04-02T13:33:30.905Z,51.13
2023-04-02T13:34:33.514Z,51.27
2023-04-02T13:35:35.896Z,51.40
2023-04-02T13:36:38.399Z,51.60
2023-04-02T13:37:40.933Z,51.49
2023-04-02T13:38:43.243Z,51.59
2023-04-02T13:39:45.645Z,51.72
2023-04-02T13:40:47.986Z,51.52
2023-04-02T13:41:55.999Z,51.41
2023-04-02T13:43:00.169Z,51.35
2023-04-02T13:44:03.585Z,51.16
2023-04-02T13:45:18.891Z,50.73
2023-04-02T13:46:23.876Z,50.71
2023-04-02T13:47:26.312Z,50.59
2023-04-02T13:48:28.931Z,50.58
2023-04-02T13:49:31.840Z,50.55
2023-04-02T13:50:35.392Z,50.67
2023-04-02T13:51:46.922Z,50.61
2023-04-02T13:52:51.320Z,50.62
2023-04-02T13:53:57.648Z,50.60
2023-04-02T13:55:01.418Z,50.33
2023-04-02T13:56:08.616Z,50.13
2023-04-02T13:57:11.058Z,50.18
2023-04-02T13:58:13.449Z,49.94
2023-04-02T13:59:16.541Z,50.07
2023-04-02T14:00:20.061Z,50.23
2023-04-02T14:01:25.038Z,50.19
2023-04-02T14:02:27.953Z,50.15
2023-04-02T14:03:30.442Z,50.12
2023-04-02T14:04:38.422Z,50.03
2023-04-02T14:06:03.386Z,49.98
2023-04-02T14:07:26.632Z,50.20
2023-04-02T14:08:28.895Z,50.31
2023-04-02T14:09:48.153Z,50.08
2023-04-02T14:11:09.059Z,49.94
2023-04-02T14:12:33.739Z,50.05
2023-04-02T14:14:00.255Z,49.47
2023-04-02T14:15:20.090Z,49.86
2023-04-02T14:16:57.242Z,50.05
2023-04-02T14:18:17.958Z,50.03
2023-04-02T14:19:38.556Z,50.24
2023-04-02T14:20:51.704Z,50.19
2023-04-02T14:22:08.373Z,49.98
2023-04-02T14:23:36.633Z,50.04
2023-04-02T14:24:56.677Z,50.22
2023-04-02T14:26:22.830Z,50.40
2023-04-02T14:27:33.239Z,50.40
2023-04-02T14:29:13.508Z,50.41
2023-04-02T14:30:48.378Z,50.47
2023-04-02T14:32:00.026Z,50.48
2023-04-02T14:33:23.764Z,50.42
2023-04-02T14:34:53.058Z,50.44
2023-04-02T14:36:12.130Z,50.18
2023-04-02T14:37:41.993Z,50.46
2023-04-02T14:38:56.410Z,50.41
2023-04-02T14:40:27.259Z,50.36
2023-04-02T14:41:58.035Z,50.51
2023-04-02T14:43:11.605Z,50.41
2023-04-02T14:44:15.562Z,50.30
2023-04-02T14:45:42.312Z,50.47
2023-04-02T14:46:44.668Z,50.35
2023-04-02T14:47:54.648Z,50.49
2023-04-02T14:49:05.329Z,50.38
2023-04-02T14:50:13.897Z,50.29
2023-04-02T14:51:25.062Z,50.34
2023-04-02T14:52:31.959Z,50.36
2023-04-02T14:53:54.417Z,50.47
2023-04-02T14:55:03.747Z,50.48
2023-04-02T14:56:10.852Z,50.47
2023-04-02T14:57:19.160Z,50.53
2023-04-02T14:58:29.077Z,50.64
2023-04-02T14:59:53.506Z,50.65
2023-04-02T15:01:03.385Z,50.71
2023-04-02T15:02:19.197Z,50.63
2023-04-02T15:03:37.743Z,50.70
2023-04-02T15:04:54.325Z,50.47
2023-04-02T15:06:04.058Z,50.48
2023-04-02T15:07:19.237Z,50.50
2023-04-02T15:08:33.443Z,50.72
2023-04-02T15:09:45.336Z,50.46
2023-04-02T15:11:08.541Z,50.53
2023-04-02T15:12:20.607Z,50.62
2023-04-02T15:13:33.548Z,50.46
2023-04-02T15:14:44.221Z,50.50
2023-04-02T15:15:52.904Z,50.52